sensor_id;sensor_type;location;lat;lon;timestamp;pressure;altitude;pressure_sealevel;temperature;humidity
70976;BME280;58635;51.198;6.010;2023-04-06T00:02:07;101660.88;;;9.16;43.05
70976;BME280;58635;51.198;6.010;2023-04-06T00:04:33;101657.97;;;9.11;43.18
70976;BME280;58635;51.198;6.010;2023-04-06T00:06:58;101656.84;;;9.05;43.32
70976;BME280;58635;51.198;6.010;2023-04-06T00:09:24;101653.13;;;8.99;43.55
70976;BME280;58635;51.198;6.010;2023-04-06T00:11:49;101650.72;;;8.98;44.06
70976;BME280;58635;51.198;6.010;2023-04-06T00:14:15;101649.44;;;8.94;44.07
70976;BME280;58635;51.198;6.010;2023-04-06T00:16:42;101647.50;;;8.88;44.49
70976;BME280;58635;51.198;6.010;2023-04-06T00:19:07;101656.69;;;8.82;44.97
70976;BME280;58635;51.198;6.010;2023-04-06T00:21:33;101652.03;;;8.77;44.73
70976;BME280;58635;51.198;6.010;2023-04-06T00:23:58;101645.53;;;8.73;45.10
70976;BME280;58635;51.198;6.010;2023-04-06T00:26:24;101651.50;;;8.74;44.81
70976;BME280;58635;51.198;6.010;2023-04-06T00:28:50;101645.06;;;8.70;44.76
70976;BME280;58635;51.198;6.010;2023-04-06T00:31:17;101645.22;;;8.68;44.88
70976;BME280;58635;51.198;6.010;2023-04-06T00:33:42;101634.44;;;8.65;44.74
70976;BME280;58635;51.198;6.010;2023-04-06T00:36:08;101632.78;;;8.64;45.22
70976;BME280;58635;51.198;6.010;2023-04-06T00:38:33;101638.28;;;8.61;45.18
70976;BME280;58635;51.198;6.010;2023-04-06T00:40:59;101622.97;;;8.59;45.22
70976;BME280;58635;51.198;6.010;2023-04-06T00:43:24;101628.28;;;8.58;45.11
70976;BME280;58635;51.198;6.010;2023-04-06T00:45:50;101626.84;;;8.55;45.21
70976;BME280;58635;51.198;6.010;2023-04-06T00:48:16;101618.47;;;8.53;45.39
70976;BME280;58635;51.198;6.010;2023-04-06T00:50:42;101617.78;;;8.51;45.23
70976;BME280;58635;51.198;6.010;2023-04-06T00:53:07;101613.78;;;8.48;45.14
70976;BME280;58635;51.198;6.010;2023-04-06T00:55:32;101619.09;;;8.47;45.40
70976;BME280;58635;51.198;6.010;2023-04-06T00:57:58;101610.72;;;8.45;45.13
70976;BME280;58635;51.198;6.010;2023-04-06T01:00:25;101608.47;;;8.42;45.24
70976;BME280;58635;51.198;6.010;2023-04-06T01:02:50;101604.41;;;8.39;45.48
70976;BME280;58635;51.198;6.010;2023-04-06T01:05:16;101603.75;;;8.37;45.45
70976;BME280;58635;51.198;6.010;2023-04-06T01:07:41;101599.72;;;8.35;45.44
70976;BME280;58635;51.198;6.010;2023-04-06T01:10:07;101600.84;;;8.32;45.49
70976;BME280;58635;51.198;6.010;2023-04-06T01:12:33;101602.78;;;8.30;45.57
70976;BME280;58635;51.198;6.010;2023-04-06T01:14:59;101598.72;;;8.28;45.75
70976;BME280;58635;51.198;6.010;2023-04-06T01:17:24;101606.75;;;8.25;45.86
70976;BME280;58635;51.198;6.010;2023-04-06T01:19:50;101597.59;;;8.22;45.89
70976;BME280;58635;51.198;6.010;2023-04-06T01:22:19;101595.97;;;8.21;46.11
70976;BME280;58635;51.198;6.010;2023-04-06T01:24:45;101585.03;;;8.19;46.01
70976;BME280;58635;51.198;6.010;2023-04-06T01:27:11;101586.63;;;8.20;46.46
70976;BME280;58635;51.198;6.010;2023-04-06T01:29:36;101582.44;;;8.19;46.58
70976;BME280;58635;51.198;6.010;2023-04-06T01:32:02;101585.19;;;8.17;46.67
70976;BME280;58635;51.198;6.010;2023-04-06T01:34:27;101580.97;;;8.16;46.96
70976;BME280;58635;51.198;6.010;2023-04-06T01:36:52;101575.97;;;8.15;46.81
70976;BME280;58635;51.198;6.010;2023-04-06T01:39:18;101590.47;;;8.16;47.15
70976;BME280;58635;51.198;6.010;2023-04-06T01:41:44;101579.34;;;8.15;46.85
70976;BME280;58635;51.198;6.010;2023-04-06T01:44:12;101582.25;;;8.12;47.16
70976;BME280;58635;51.198;6.010;2023-04-06T01:46:37;101583.38;;;8.10;46.86
70976;BME280;58635;51.198;6.010;2023-04-06T01:49:03;101581.78;;;8.09;47.21
70976;BME280;58635;51.198;6.010;2023-04-06T01:51:28;101575.00;;;8.08;47.00
70976;BME280;58635;51.198;6.010;2023-04-06T01:53:53;101571.63;;;8.07;46.86
70976;BME280;58635;51.198;6.010;2023-04-06T01:56:19;101569.22;;;8.06;47.07
70976;BME280;58635;51.198;6.010;2023-04-06T01:58:45;101564.88;;;8.06;47.25
70976;BME280;58635;51.198;6.010;2023-04-06T02:01:10;101571.91;;;8.04;47.07
70976;BME280;58635;51.198;6.010;2023-04-06T02:03:36;101558.22;;;8.04;47.23
70976;BME280;58635;51.198;6.010;2023-04-06T02:06:01;101557.59;;;8.02;47.63
70976;BME280;58635;51.198;6.010;2023-04-06T02:08:27;101564.69;;;8.00;47.57
70976;BME280;58635;51.198;6.010;2023-04-06T02:10:52;101558.88;;;7.98;47.38
70976;BME280;58635;51.198;6.010;2023-04-06T02:13:17;101562.41;;;7.97;47.91
70976;BME280;58635;51.198;6.010;2023-04-06T02:15:43;101556.47;;;7.96;47.82
70976;BME280;58635;51.198;6.010;2023-04-06T02:18:08;101560.81;;;7.96;47.99
70976;BME280;58635;51.198;6.010;2023-04-06T02:20:35;101547.94;;;7.96;47.91
70976;BME280;58635;51.198;6.010;2023-04-06T02:23:00;101545.34;;;7.96;48.14
70976;BME280;58635;51.198;6.010;2023-04-06T02:25:26;101547.13;;;7.95;48.19
70976;BME280;58635;51.198;6.010;2023-04-06T02:27:51;101542.94;;;7.94;48.36
70976;BME280;58635;51.198;6.010;2023-04-06T02:30:17;101545.66;;;7.92;48.38
70976;BME280;58635;51.198;6.010;2023-04-06T02:32:42;101542.75;;;7.87;48.11
70976;BME280;58635;51.198;6.010;2023-04-06T02:35:08;101549.66;;;7.87;48.15
70976;BME280;58635;51.198;6.010;2023-04-06T02:37:33;101551.75;;;7.83;48.36
70976;BME280;58635;51.198;6.010;2023-04-06T02:39:59;101547.06;;;7.79;48.45
70976;BME280;58635;51.198;6.010;2023-04-06T02:42:24;101539.81;;;7.74;48.35
70976;BME280;58635;51.198;6.010;2023-04-06T02:44:49;101539.97;;;7.73;48.51
70976;BME280;58635;51.198;6.010;2023-04-06T02:47:15;101542.72;;;7.71;48.48
70976;BME280;58635;51.198;6.010;2023-04-06T02:49:40;101539.47;;;7.69;48.78
70976;BME280;58635;51.198;6.010;2023-04-06T02:52:06;101534.47;;;7.68;48.76
70976;BME280;58635;51.198;6.010;2023-04-06T02:54:31;101538.00;;;7.67;48.67
70976;BME280;58635;51.198;6.010;2023-04-06T02:56:57;101528.03;;;7.63;48.46
70976;BME280;58635;51.198;6.010;2023-04-06T02:59:22;101532.53;;;7.61;48.70
70976;BME280;58635;51.198;6.010;2023-04-06T03:01:47;101531.72;;;7.61;48.85
70976;BME280;58635;51.198;6.010;2023-04-06T03:04:13;101533.50;;;7.60;48.85
70976;BME280;58635;51.198;6.010;2023-04-06T03:06:38;101524.97;;;7.60;49.02
70976;BME280;58635;51.198;6.010;2023-04-06T03:09:05;101531.06;;;7.59;48.89
70976;BME280;58635;51.198;6.010;2023-04-06T03:11:30;101536.22;;;7.59;49.00
70976;BME280;58635;51.198;6.010;2023-04-06T03:13:56;101522.56;;;7.58;48.75
70976;BME280;58635;51.198;6.010;2023-04-06T03:16:21;101529.47;;;7.58;48.59
70976;BME280;58635;51.198;6.010;2023-04-06T03:18:46;101527.81;;;7.57;48.95
70976;BME280;58635;51.198;6.010;2023-04-06T03:21:15;101522.69;;;7.57;49.26
70976;BME280;58635;51.198;6.010;2023-04-06T03:23:42;101526.06;;;7.57;49.07
70976;BME280;58635;51.198;6.010;2023-04-06T03:26:07;101518.34;;;7.57;48.82
70976;BME280;58635;51.198;6.010;2023-04-06T03:28:32;101511.56;;;7.56;49.07
70976;BME280;58635;51.198;6.010;2023-04-06T03:30:58;101510.63;;;7.57;48.81
70976;BME280;58635;51.198;6.010;2023-04-06T03:33:24;101510.63;;;7.57;48.81
70976;BME280;58635;51.198;6.010;2023-04-06T03:35:52;101507.22;;;7.57;48.81
70976;BME280;58635;51.198;6.010;2023-04-06T03:38:17;101505.47;;;7.57;49.30
70976;BME280;58635;51.198;6.010;2023-04-06T03:40:43;101511.44;;;7.58;48.96
70976;BME280;58635;51.198;6.010;2023-04-06T03:43:08;101502.75;;;7.59;48.86
70976;BME280;58635;51.198;6.010;2023-04-06T03:45:34;101502.59;;;7.60;48.74
70976;BME280;58635;51.198;6.010;2023-04-06T03:48:00;101486.34;;;7.60;48.71
70976;BME280;58635;51.198;6.010;2023-04-06T03:50:25;101487.97;;;7.61;48.57
70976;BME280;58635;51.198;6.010;2023-04-06T03:52:51;101492.13;;;7.62;48.94
70976;BME280;58635;51.198;6.010;2023-04-06T03:55:16;101487.81;;;7.62;48.73
70976;BME280;58635;51.198;6.010;2023-04-06T03:57:42;101486.03;;;7.63;48.76
70976;BME280;58635;51.198;6.010;2023-04-06T04:00:07;101494.56;;;7.63;48.75
70976;BME280;58635;51.198;6.010;2023-04-06T04:02:33;101491.81;;;7.65;48.48
70976;BME280;58635;51.198;6.010;2023-04-06T04:04:58;101494.41;;;7.65;48.89
70976;BME280;58635;51.198;6.010;2023-04-06T04:07:24;101491.00;;;7.65;48.36
70976;BME280;58635;51.198;6.010;2023-04-06T04:09:49;101499.53;;;7.65;48.40
70976;BME280;58635;51.198;6.010;2023-04-06T04:12:15;101499.38;;;7.67;48.50
70976;BME280;58635;51.198;6.010;2023-04-06T04:14:41;101497.63;;;7.67;48.77
70976;BME280;58635;51.198;6.010;2023-04-06T04:17:07;101498.25;;;7.69;48.68
70976;BME280;58635;51.198;6.010;2023-04-06T04:19:32;101496.53;;;7.70;48.70
70976;BME280;58635;51.198;6.010;2023-04-06T04:21:58;101501.50;;;7.71;48.49
70976;BME280;58635;51.198;6.010;2023-04-06T04:24:23;101497.97;;;7.72;48.65
70976;BME280;58635;51.198;6.010;2023-04-06T04:26:49;101501.50;;;7.71;48.63
70976;BME280;58635;51.198;6.010;2023-04-06T04:29:14;101495.22;;;7.74;48.74
70976;BME280;58635;51.198;6.010;2023-04-06T04:31:40;101493.47;;;7.74;48.71
70976;BME280;58635;51.198;6.010;2023-04-06T04:34:05;101499.41;;;7.75;48.67
70976;BME280;58635;51.198;6.010;2023-04-06T04:36:32;101498.63;;;7.74;48.62
70976;BME280;58635;51.198;6.010;2023-04-06T04:38:57;101503.59;;;7.76;48.48
70976;BME280;58635;51.198;6.010;2023-04-06T04:41:23;101501.19;;;7.74;48.36
70976;BME280;58635;51.198;6.010;2023-04-06T04:43:48;101501.84;;;7.76;48.48
70976;BME280;58635;51.198;6.010;2023-04-06T04:46:13;101507.63;;;7.78;48.84
70976;BME280;58635;51.198;6.010;2023-04-06T04:48:39;101501.50;;;7.79;48.71
70976;BME280;58635;51.198;6.010;2023-04-06T04:51:05;101505.69;;;7.80;48.40
70976;BME280;58635;51.198;6.010;2023-04-06T04:53:30;101501.34;;;7.81;48.43
70976;BME280;58635;51.198;6.010;2023-04-06T04:55:56;101499.63;;;7.81;48.66
70976;BME280;58635;51.198;6.010;2023-04-06T04:58:21;101507.34;;;7.81;48.43
70976;BME280;58635;51.198;6.010;2023-04-06T05:00:47;101504.75;;;7.81;48.22
70976;BME280;58635;51.198;6.010;2023-04-06T05:03:26;101497.97;;;7.80;48.04
70976;BME280;58635;51.198;6.010;2023-04-06T05:05:52;101503.13;;;7.80;47.90
70976;BME280;58635;51.198;6.010;2023-04-06T05:08:17;101500.72;;;7.79;48.19
70976;BME280;58635;51.198;6.010;2023-04-06T05:10:43;101493.94;;;7.78;47.91
70976;BME280;58635;51.198;6.010;2023-04-06T05:13:10;101498.94;;;7.79;47.99
70976;BME280;58635;51.198;6.010;2023-04-06T05:15:35;101499.09;;;7.78;47.85
70976;BME280;58635;51.198;6.010;2023-04-06T05:18:04;101506.81;;;7.78;48.16
70976;BME280;58635;51.198;6.010;2023-04-06T05:20:29;101499.75;;;7.80;48.15
70976;BME280;58635;51.198;6.010;2023-04-06T05:22:55;101499.44;;;7.83;47.88
70976;BME280;58635;51.198;6.010;2023-04-06T05:25:20;101502.66;;;7.85;48.05
70976;BME280;58635;51.198;6.010;2023-04-06T05:27:46;101497.19;;;7.88;47.88
70976;BME280;58635;51.198;6.010;2023-04-06T05:30:12;101497.66;;;7.91;47.92
70976;BME280;58635;51.198;6.010;2023-04-06T05:32:37;101493.03;;;7.95;47.66
70976;BME280;58635;51.198;6.010;2023-04-06T05:35:03;101491.09;;;7.97;47.80
70976;BME280;58635;51.198;6.010;2023-04-06T05:37:28;101498.34;;;8.02;47.71
70976;BME280;58635;51.198;6.010;2023-04-06T05:39:54;101496.13;;;8.07;47.46
70976;BME280;58635;51.198;6.010;2023-04-06T05:42:22;101491.91;;;8.14;47.13
70976;BME280;58635;51.198;6.010;2023-04-06T05:44:47;101488.88;;;8.18;47.14
70976;BME280;58635;51.198;6.010;2023-04-06T05:47:13;101482.25;;;8.24;47.25
70976;BME280;58635;51.198;6.010;2023-04-06T05:49:38;101488.56;;;8.30;47.17
70976;BME280;58635;51.198;6.010;2023-04-06T05:52:04;101490.81;;;8.33;46.91
70976;BME280;58635;51.198;6.010;2023-04-06T05:54:29;101491.78;;;8.40;46.93
70976;BME280;58635;51.198;6.010;2023-04-06T05:56:55;101487.59;;;8.47;46.77
70976;BME280;58635;51.198;6.010;2023-04-06T05:59:21;101486.97;;;8.53;46.69
70976;BME280;58635;51.198;6.010;2023-04-06T06:01:46;101493.25;;;8.59;46.36
70976;BME280;58635;51.198;6.010;2023-04-06T06:04:11;101488.25;;;8.65;46.38
70976;BME280;58635;51.198;6.010;2023-04-06T06:06:37;101483.56;;;8.69;46.20
70976;BME280;58635;51.198;6.010;2023-04-06T06:09:02;101488.06;;;8.75;46.25
70976;BME280;58635;51.198;6.010;2023-04-06T06:11:29;101487.41;;;8.81;46.14
70976;BME280;58635;51.198;6.010;2023-04-06T06:13:55;101479.97;;;8.86;45.89
70976;BME280;58635;51.198;6.010;2023-04-06T06:16:20;101485.28;;;8.93;46.04
70976;BME280;58635;51.198;6.010;2023-04-06T06:18:46;101481.22;;;8.98;45.53
70976;BME280;58635;51.198;6.010;2023-04-06T06:21:11;101477.53;;;9.01;45.58
70976;BME280;58635;51.198;6.010;2023-04-06T06:23:38;101477.66;;;9.07;45.38
70976;BME280;58635;51.198;6.010;2023-04-06T06:26:03;101479.09;;;9.10;45.21
70976;BME280;58635;51.198;6.010;2023-04-06T06:28:29;101478.28;;;9.18;45.11
70976;BME280;58635;51.198;6.010;2023-04-06T06:30:55;101482.78;;;9.24;44.95
70976;BME280;58635;51.198;6.010;2023-04-06T06:33:20;101480.31;;;9.30;44.86
70976;BME280;58635;51.198;6.010;2023-04-06T06:35:46;101482.72;;;9.40;44.49
70976;BME280;58635;51.198;6.010;2023-04-06T06:38:11;101480.91;;;9.49;44.57
70976;BME280;58635;51.198;6.010;2023-04-06T06:40:36;101485.84;;;9.58;44.28
70976;BME280;58635;51.198;6.010;2023-04-06T06:43:02;101480.63;;;9.66;44.24
70976;BME280;58635;51.198;6.010;2023-04-06T06:45:28;101488.97;;;9.77;44.00
70976;BME280;58635;51.198;6.010;2023-04-06T06:47:54;101484.09;;;9.82;43.91
70976;BME280;58635;51.198;6.010;2023-04-06T06:50:20;101489.22;;;9.90;43.71
70976;BME280;58635;51.198;6.010;2023-04-06T06:52:45;101484.50;;;9.93;43.59
70976;BME280;58635;51.198;6.010;2023-04-06T06:55:11;101478.03;;;9.98;43.56
70976;BME280;58635;51.198;6.010;2023-04-06T06:57:36;101485.09;;;10.04;43.66
70976;BME280;58635;51.198;6.010;2023-04-06T07:00:03;101482.81;;;10.09;43.58
70976;BME280;58635;51.198;6.010;2023-04-06T07:02:30;101483.69;;;10.16;43.53
70976;BME280;58635;51.198;6.010;2023-04-06T07:04:56;101491.63;;;10.22;43.53
70976;BME280;58635;51.198;6.010;2023-04-06T07:07:21;101474.41;;;10.30;43.37
70976;BME280;58635;51.198;6.010;2023-04-06T07:09:46;101473.72;;;10.36;43.36
70976;BME280;58635;51.198;6.010;2023-04-06T07:12:12;101479.66;;;10.44;43.44
70976;BME280;58635;51.198;6.010;2023-04-06T07:14:37;101474.38;;;10.52;43.34
70976;BME280;58635;51.198;6.010;2023-04-06T07:17:03;101481.28;;;10.60;43.25
70976;BME280;58635;51.198;6.010;2023-04-06T07:19:28;101475.66;;;10.71;43.04
70976;BME280;58635;51.198;6.010;2023-04-06T07:21:54;101474.78;;;10.79;42.93
70976;BME280;58635;51.198;6.010;2023-04-06T07:24:19;101474.50;;;10.89;42.96
70976;BME280;58635;51.198;6.010;2023-04-06T07:26:45;101474.44;;;10.97;42.59
70976;BME280;58635;51.198;6.010;2023-04-06T07:29:10;101470.16;;;11.04;42.51
70976;BME280;58635;51.198;6.010;2023-04-06T07:31:36;101473.63;;;11.11;42.48
70976;BME280;58635;51.198;6.010;2023-04-06T07:34:01;101472.28;;;11.15;42.18
70976;BME280;58635;51.198;6.010;2023-04-06T07:36:27;101462.19;;;11.20;42.35
70976;BME280;58635;51.198;6.010;2023-04-06T07:38:52;101461.81;;;11.23;42.17
70976;BME280;58635;51.198;6.010;2023-04-06T07:41:18;101461.28;;;11.28;42.27
70976;BME280;58635;51.198;6.010;2023-04-06T07:43:43;101459.38;;;11.36;42.09
70976;BME280;58635;51.198;6.010;2023-04-06T07:46:08;101450.91;;;11.42;42.08
70976;BME280;58635;51.198;6.010;2023-04-06T07:48:34;101456.31;;;11.48;42.07
70976;BME280;58635;51.198;6.010;2023-04-06T07:51:01;101457.56;;;11.52;42.23
70976;BME280;58635;51.198;6.010;2023-04-06T07:53:27;101457.81;;;11.57;42.10
70976;BME280;58635;51.198;6.010;2023-04-06T07:55:53;101450.75;;;11.65;41.77
70976;BME280;58635;51.198;6.010;2023-04-06T07:58:18;101454.03;;;11.74;41.85
70976;BME280;58635;51.198;6.010;2023-04-06T08:00:44;101454.72;;;11.83;41.77
70976;BME280;58635;51.198;6.010;2023-04-06T08:03:09;101449.63;;;11.89;41.73
70976;BME280;58635;51.198;6.010;2023-04-06T08:05:35;101451.09;;;11.98;41.67
70976;BME280;58635;51.198;6.010;2023-04-06T08:08:00;101454.53;;;12.06;41.59
70976;BME280;58635;51.198;6.010;2023-04-06T08:10:25;101457.19;;;12.12;41.64
70976;BME280;58635;51.198;6.010;2023-04-06T08:12:52;101447.84;;;12.18;41.41
70976;BME280;58635;51.198;6.010;2023-04-06T08:15:17;101452.31;;;12.24;41.50
70976;BME280;58635;51.198;6.010;2023-04-06T08:17:43;101453.97;;;12.32;41.56
70976;BME280;58635;51.198;6.010;2023-04-06T08:20:09;101451.22;;;12.40;41.68
70976;BME280;58635;51.198;6.010;2023-04-06T08:22:34;101454.88;;;12.45;41.15
70976;BME280;58635;51.198;6.010;2023-04-06T08:25:00;101450.69;;;12.51;41.29
70976;BME280;58635;51.198;6.010;2023-04-06T08:27:25;101459.53;;;12.56;41.23
70976;BME280;58635;51.198;6.010;2023-04-06T08:29:51;101456.38;;;12.61;41.30
70976;BME280;58635;51.198;6.010;2023-04-06T08:32:16;101455.97;;;12.64;41.19
70976;BME280;58635;51.198;6.010;2023-04-06T08:34:42;101457.03;;;12.70;41.13
70976;BME280;58635;51.198;6.010;2023-04-06T08:37:07;101462.63;;;12.73;41.31
70976;BME280;58635;51.198;6.010;2023-04-06T08:39:33;101465.28;;;12.80;41.07
70976;BME280;58635;51.198;6.010;2023-04-06T08:41:59;101467.50;;;12.89;41.20
70976;BME280;58635;51.198;6.010;2023-04-06T08:44:25;101463.56;;;13.00;41.07
70976;BME280;58635;51.198;6.010;2023-04-06T08:46:51;101463.22;;;13.10;41.17
70976;BME280;58635;51.198;6.010;2023-04-06T08:49:19;101458.88;;;13.17;41.35
70976;BME280;58635;51.198;6.010;2023-04-06T08:51:44;101459.50;;;13.26;41.20
70976;BME280;58635;51.198;6.010;2023-04-06T08:54:10;101459.34;;;13.34;40.98
70976;BME280;58635;51.198;6.010;2023-04-06T08:56:38;101459.38;;;13.40;40.95
70976;BME280;58635;51.198;6.010;2023-04-06T08:59:05;101466.19;;;13.48;40.95
70976;BME280;58635;51.198;6.010;2023-04-06T09:01:33;101458.41;;;13.55;40.96
70976;BME280;58635;51.198;6.010;2023-04-06T09:04:04;101458.41;;;13.61;40.80
70976;BME280;58635;51.198;6.010;2023-04-06T09:06:34;101468.66;;;13.69;40.85
70976;BME280;58635;51.198;6.010;2023-04-06T09:08:59;101466.47;;;13.80;40.68
70976;BME280;58635;51.198;6.010;2023-04-06T09:11:25;101468.50;;;13.91;40.79
70976;BME280;58635;51.198;6.010;2023-04-06T09:13:53;101473.09;;;14.02;40.68
70976;BME280;58635;51.198;6.010;2023-04-06T09:16:19;101471.31;;;14.16;40.53
70976;BME280;58635;51.198;6.010;2023-04-06T09:18:46;101467.91;;;14.28;40.32
70976;BME280;58635;51.198;6.010;2023-04-06T09:21:11;101470.09;;;14.38;40.13
70976;BME280;58635;51.198;6.010;2023-04-06T09:23:38;101463.94;;;14.46;39.82
70976;BME280;58635;51.198;6.010;2023-04-06T09:26:14;101468.13;;;14.60;39.90
70976;BME280;58635;51.198;6.010;2023-04-06T09:28:55;101469.28;;;14.71;39.99
70976;BME280;58635;51.198;6.010;2023-04-06T09:31:26;101470.66;;;14.80;39.73
70976;BME280;58635;51.198;6.010;2023-04-06T09:33:52;101469.47;;;14.82;39.57
70976;BME280;58635;51.198;6.010;2023-04-06T09:36:18;101471.47;;;14.80;39.64
70976;BME280;58635;51.198;6.010;2023-04-06T09:38:55;101471.28;;;14.75;39.45
70976;BME280;58635;51.198;6.010;2023-04-06T09:41:25;101470.09;;;14.71;39.59
70976;BME280;58635;51.198;6.010;2023-04-06T09:43:52;101467.50;;;14.65;39.40
70976;BME280;58635;51.198;6.010;2023-04-06T09:46:20;101460.09;;;14.61;39.18
70976;BME280;58635;51.198;6.010;2023-04-06T09:48:47;101463.09;;;14.58;38.93
70976;BME280;58635;51.198;6.010;2023-04-06T09:51:14;101466.72;;;14.57;38.96
70976;BME280;58635;51.198;6.010;2023-04-06T09:53:42;101465.31;;;14.61;38.56
70976;BME280;58635;51.198;6.010;2023-04-06T09:56:11;101462.50;;;14.70;38.66
70976;BME280;58635;51.198;6.010;2023-04-06T09:58:40;101467.47;;;14.78;38.22
70976;BME280;58635;51.198;6.010;2023-04-06T10:01:09;101472.06;;;14.82;38.19
70976;BME280;58635;51.198;6.010;2023-04-06T10:03:51;101462.25;;;14.84;38.12
70976;BME280;58635;51.198;6.010;2023-04-06T10:06:23;101457.22;;;14.89;38.07
70976;BME280;58635;51.198;6.010;2023-04-06T10:08:51;101466.41;;;14.99;37.96
70976;BME280;58635;51.198;6.010;2023-04-06T10:11:19;101463.16;;;15.10;37.64
70976;BME280;58635;51.198;6.010;2023-04-06T10:13:45;101466.31;;;15.25;37.72
70976;BME280;58635;51.198;6.010;2023-04-06T10:16:14;101464.03;;;15.42;37.55
70976;BME280;58635;51.198;6.010;2023-04-06T10:18:44;101461.94;;;15.57;37.33
70976;BME280;58635;51.198;6.010;2023-04-06T10:21:13;101472.09;;;15.72;37.12
70976;BME280;58635;51.198;6.010;2023-04-06T10:23:49;101464.59;;;15.89;37.19
70976;BME280;58635;51.198;6.010;2023-04-06T10:26:19;101464.84;;;16.05;37.00
70976;BME280;58635;51.198;6.010;2023-04-06T10:28:46;101465.31;;;16.21;36.65
70976;BME280;58635;51.198;6.010;2023-04-06T10:31:12;101465.50;;;16.26;36.23
70976;BME280;58635;51.198;6.010;2023-04-06T10:33:38;101469.75;;;16.20;36.60
70976;BME280;58635;51.198;6.010;2023-04-06T10:36:11;101471.53;;;16.26;36.65
70976;BME280;58635;51.198;6.010;2023-04-06T10:38:41;101465.44;;;16.32;36.69
70976;BME280;58635;51.198;6.010;2023-04-06T10:41:08;101467.19;;;16.38;36.73
70976;BME280;58635;51.198;6.010;2023-04-06T10:43:35;101478.56;;;16.44;36.63
70976;BME280;58635;51.198;6.010;2023-04-06T10:46:02;101472.34;;;16.45;36.60
70976;BME280;58635;51.198;6.010;2023-04-06T10:48:38;101473.44;;;16.37;36.51
70976;BME280;58635;51.198;6.010;2023-04-06T10:51:18;101467.47;;;16.30;36.96
70976;BME280;58635;51.198;6.010;2023-04-06T10:53:45;101462.47;;;16.29;36.83
70976;BME280;58635;51.198;6.010;2023-04-06T10:56:16;101472.06;;;16.35;36.96
70976;BME280;58635;51.198;6.010;2023-04-06T10:58:46;101462.34;;;16.42;36.92
70976;BME280;58635;51.198;6.010;2023-04-06T11:01:12;101456.47;;;16.47;36.94
70976;BME280;58635;51.198;6.010;2023-04-06T11:03:48;101459.81;;;16.54;36.71
70976;BME280;58635;51.198;6.010;2023-04-06T11:06:24;101460.38;;;16.56;37.00
70976;BME280;58635;51.198;6.010;2023-04-06T11:08:51;101464.47;;;16.52;36.79
70976;BME280;58635;51.198;6.010;2023-04-06T11:11:18;101460.69;;;16.48;36.92
70976;BME280;58635;51.198;6.010;2023-04-06T11:13:51;101464.50;;;16.45;36.83
70976;BME280;58635;51.198;6.010;2023-04-06T11:16:23;101468.78;;;16.40;37.30
70976;BME280;58635;51.198;6.010;2023-04-06T11:18:54;101470.50;;;16.27;37.37
70976;BME280;58635;51.198;6.010;2023-04-06T11:21:35;101471.22;;;16.09;38.10
70976;BME280;58635;51.198;6.010;2023-04-06T11:24:08;101470.72;;;16.01;38.61
70976;BME280;58635;51.198;6.010;2023-04-06T11:26:42;101470.53;;;15.96;38.82
70976;BME280;58635;51.198;6.010;2023-04-06T11:29:10;101463.19;;;15.86;38.99
70976;BME280;58635;51.198;6.010;2023-04-06T11:31:40;101466.06;;;15.78;39.17
70976;BME280;58635;51.198;6.010;2023-04-06T11:34:19;101465.06;;;15.72;39.44
70976;BME280;58635;51.198;6.010;2023-04-06T11:36:46;101461.09;;;15.70;39.54
70976;BME280;58635;51.198;6.010;2023-04-06T11:39:13;101459.50;;;15.69;39.60
70976;BME280;58635;51.198;6.010;2023-04-06T11:41:39;101461.72;;;15.65;39.86
70976;BME280;58635;51.198;6.010;2023-04-06T11:44:05;101456.72;;;15.64;40.44
70976;BME280;58635;51.198;6.010;2023-04-06T11:46:31;101455.94;;;15.57;40.79
70976;BME280;58635;51.198;6.010;2023-04-06T11:49:01;101457.19;;;15.47;41.35
70976;BME280;58635;51.198;6.010;2023-04-06T11:51:27;101460.06;;;15.33;41.48
70976;BME280;58635;51.198;6.010;2023-04-06T11:53:53;101453.69;;;15.22;41.95
70976;BME280;58635;51.198;6.010;2023-04-06T11:56:26;101450.72;;;15.12;42.27
70976;BME280;58635;51.198;6.010;2023-04-06T11:58:52;101462.78;;;15.06;42.42
70976;BME280;58635;51.198;6.010;2023-04-06T12:01:18;101463.00;;;15.05;42.78
70976;BME280;58635;51.198;6.010;2023-04-06T12:03:43;101459.41;;;14.99;43.12
70976;BME280;58635;51.198;6.010;2023-04-06T12:06:08;101464.00;;;14.97;43.73
70976;BME280;58635;51.198;6.010;2023-04-06T12:08:34;101461.41;;;14.90;43.93
70976;BME280;58635;51.198;6.010;2023-04-06T12:10:59;101466.88;;;14.82;44.60
70976;BME280;58635;51.198;6.010;2023-04-06T12:13:25;101462.06;;;14.73;44.98
70976;BME280;58635;51.198;6.010;2023-04-06T12:15:51;101466.31;;;14.60;45.70
70976;BME280;58635;51.198;6.010;2023-04-06T12:18:16;101461.31;;;14.46;46.05
70976;BME280;58635;51.198;6.010;2023-04-06T12:20:42;101455.69;;;14.36;46.59
70976;BME280;58635;51.198;6.010;2023-04-06T12:23:07;101454.50;;;14.25;46.74
70976;BME280;58635;51.198;6.010;2023-04-06T12:25:33;101455.72;;;14.22;47.18
70976;BME280;58635;51.198;6.010;2023-04-06T12:27:58;101451.31;;;14.23;47.40
70976;BME280;58635;51.198;6.010;2023-04-06T12:30:23;101448.50;;;14.24;47.39
70976;BME280;58635;51.198;6.010;2023-04-06T12:32:50;101450.09;;;14.25;47.45
70976;BME280;58635;51.198;6.010;2023-04-06T12:35:15;101451.28;;;14.29;47.44
70976;BME280;58635;51.198;6.010;2023-04-06T12:37:41;101453.50;;;14.32;47.73
70976;BME280;58635;51.198;6.010;2023-04-06T12:40:07;101445.28;;;14.36;48.15
70976;BME280;58635;51.198;6.010;2023-04-06T12:42:35;101451.88;;;14.38;48.21
70976;BME280;58635;51.198;6.010;2023-04-06T12:45:01;101445.09;;;14.37;48.08
70976;BME280;58635;51.198;6.010;2023-04-06T12:47:26;101451.50;;;14.34;48.06
70976;BME280;58635;51.198;6.010;2023-04-06T12:49:53;101439.28;;;14.28;48.17
70976;BME280;58635;51.198;6.010;2023-04-06T12:52:19;101437.28;;;14.24;48.26